sensor_id;sensor_type;location;lat;lon;timestamp;temperature;humidity
46091;DHT22;31826;53.572;10.170;2022-07-05T00:00:59;16.70;99.90
46091;DHT22;31826;53.572;10.170;2022-07-05T00:03:25;16.70;99.90
46091;DHT22;31826;53.572;10.170;2022-07-05T00:05:51;16.60;99.90
46091;DHT22;31826;53.572;10.170;2022-07-05T00:08:17;16.70;99.90
46091;DHT22;31826;53.572;10.170;2022-07-05T00:10:43;16.70;99.90
46091;DHT22;31826;53.572;10.170;2022-07-05T00:13:09;16.70;99.90
46091;DHT22;31826;53.572;10.170;2022-07-05T00:15:34;16.70;99.90
46091;DHT22;31826;53.572;10.170;2022-07-05T00:18:00;16.80;99.90
46091;DHT22;31826;53.572;10.170;2022-07-05T00:20:26;16.80;99.90
46091;DHT22;31826;53.572;10.170;2022-07-05T00:22:52;16.70;99.90
46091;DHT22;31826;53.572;10.170;2022-07-05T00:25:18;16.70;99.90
46091;DHT22;31826;53.572;10.170;2022-07-05T00:27:43;16.60;99.90
46091;DHT22;31826;53.572;10.170;2022-07-05T00:30:10;16.70;99.90
46091;DHT22;31826;53.572;10.170;2022-07-05T00:32:36;16.60;99.90
46091;DHT22;31826;53.572;10.170;2022-07-05T00:35:03;16.60;99.90
46091;DHT22;31826;53.572;10.170;2022-07-05T00:37:29;16.50;99.90
46091;DHT22;31826;53.572;10.170;2022-07-05T00:39:55;16.60;99.90
46091;DHT22;31826;53.572;10.170;2022-07-05T00:42:21;16.50;99.90
46091;DHT22;31826;53.572;10.170;2022-07-05T00:44:47;16.40;99.90
46091;DHT22;31826;53.572;10.170;2022-07-05T00:47:13;16.50;99.90
46091;DHT22;31826;53.572;10.170;2022-07-05T00:49:40;16.40;99.90
46091;DHT22;31826;53.572;10.170;2022-07-05T00:52:07;16.30;99.90
46091;DHT22;31826;53.572;10.170;2022-07-05T00:54:35;16.40;99.90
46091;DHT22;31826;53.572;10.170;2022-07-05T00:57:01;16.30;99.90
46091;DHT22;31826;53.572;10.170;2022-07-05T00:59:27;16.20;99.90
46091;DHT22;31826;53.572;10.170;2022-07-05T01:01:53;16.20;99.90
46091;DHT22;31826;53.572;10.170;2022-07-05T01:04:19;16.20;99.90
46091;DHT22;31826;53.572;10.170;2022-07-05T01:06:47;16.30;99.90
46091;DHT22;31826;53.572;10.170;2022-07-05T01:09:15;16.20;99.90
46091;DHT22;31826;53.572;10.170;2022-07-05T01:11:49;16.20;99.90
46091;DHT22;31826;53.572;10.170;2022-07-05T01:14:19;16.10;99.90
46091;DHT22;31826;53.572;10.170;2022-07-05T01:16:45;16.10;99.90
46091;DHT22;31826;53.572;10.170;2022-07-05T01:19:12;16.20;99.90
46091;DHT22;31826;53.572;10.170;2022-07-05T01:21:44;16.20;99.90
46091;DHT22;31826;53.572;10.170;2022-07-05T01:24:14;16.20;99.90
46091;DHT22;31826;53.572;10.170;2022-07-05T01:26:40;16.10;99.90
46091;DHT22;31826;53.572;10.170;2022-07-05T01:29:08;16.00;99.90
46091;DHT22;31826;53.572;10.170;2022-07-05T01:31:37;16.00;99.90
46091;DHT22;31826;53.572;10.170;2022-07-05T01:34:03;16.00;99.90
46091;DHT22;31826;53.572;10.170;2022-07-05T01:36:29;16.00;99.90
46091;DHT22;31826;53.572;10.170;2022-07-05T01:38:55;16.00;99.90
46091;DHT22;31826;53.572;10.170;2022-07-05T01:41:21;16.00;99.90
46091;DHT22;31826;53.572;10.170;2022-07-05T01:43:46;16.00;99.90
46091;DHT22;31826;53.572;10.170;2022-07-05T01:46:15;16.00;99.90
46091;DHT22;31826;53.572;10.170;2022-07-05T01:48:42;15.90;99.90
46091;DHT22;31826;53.572;10.170;2022-07-05T01:51:16;15.90;99.90
46091;DHT22;31826;53.572;10.170;2022-07-05T01:53:44;15.90;99.90
46091;DHT22;31826;53.572;10.170;2022-07-05T01:56:12;15.90;99.90
46091;DHT22;31826;53.572;10.170;2022-07-05T01:58:38;15.70;99.90
46091;DHT22;31826;53.572;10.170;2022-07-05T02:01:04;15.50;99.90
46091;DHT22;31826;53.572;10.170;2022-07-05T02:03:31;15.30;99.90
46091;DHT22;31826;53.572;10.170;2022-07-05T02:05:56;15.20;99.90
46091;DHT22;31826;53.572;10.170;2022-07-05T02:08:29;15.00;99.90
46091;DHT22;31826;53.572;10.170;2022-07-05T02:10:55;15.00;99.90
46091;DHT22;31826;53.572;10.170;2022-07-05T02:13:23;14.90;99.90
46091;DHT22;31826;53.572;10.170;2022-07-05T02:15:48;14.70;99.90
46091;DHT22;31826;53.572;10.170;2022-07-05T02:18:14;14.60;99.90
46091;DHT22;31826;53.572;10.170;2022-07-05T02:20:40;14.50;99.90
46091;DHT22;31826;53.572;10.170;2022-07-05T02:23:06;14.40;99.90
46091;DHT22;31826;53.572;10.170;2022-07-05T02:25:33;14.30;99.90
46091;DHT22;31826;53.572;10.170;2022-07-05T02:27:59;14.20;99.90
46091;DHT22;31826;53.572;10.170;2022-07-05T02:30:25;14.00;99.90
46091;DHT22;31826;53.572;10.170;2022-07-05T02:32:51;14.10;99.90
46091;DHT22;31826;53.572;10.170;2022-07-05T02:35:17;14.10;99.90
46091;DHT22;31826;53.572;10.170;2022-07-05T02:37:42;14.10;99.90
46091;DHT22;31826;53.572;10.170;2022-07-05T02:40:10;14.10;99.90
46091;DHT22;31826;53.572;10.170;2022-07-05T02:42:37;14.00;99.90
46091;DHT22;31826;53.572;10.170;2022-07-05T02:45:03;14.10;99.90
46091;DHT22;31826;53.572;10.170;2022-07-05T02:47:30;14.10;99.90
46091;DHT22;31826;53.572;10.170;2022-07-05T02:49:58;14.10;99.90
46091;DHT22;31826;53.572;10.170;2022-07-05T02:52:24;14.10;99.90
46091;DHT22;31826;53.572;10.170;2022-07-05T02:54:50;14.00;99.90
46091;DHT22;31826;53.572;10.170;2022-07-05T02:57:15;14.00;99.90
46091;DHT22;31826;53.572;10.170;2022-07-05T02:59:41;13.90;99.90
46091;DHT22;31826;53.572;10.170;2022-07-05T03:02:07;13.90;99.90
46091;DHT22;31826;53.572;10.170;2022-07-05T03:04:33;13.90;99.90
46091;DHT22;31826;53.572;10.170;2022-07-05T03:06:58;13.90;99.90
46091;DHT22;31826;53.572;10.170;2022-07-05T03:09:24;13.80;99.90
46091;DHT22;31826;53.572;10.170;2022-07-05T03:11:50;13.90;99.90
46091;DHT22;31826;53.572;10.170;2022-07-05T03:14:15;14.00;99.90
46091;DHT22;31826;53.572;10.170;2022-07-05T03:16:41;13.90;99.90
46091;DHT22;31826;53.572;10.170;2022-07-05T03:19:10;13.80;99.90
46091;DHT22;31826;53.572;10.170;2022-07-05T03:21:36;13.80;99.90
46091;DHT22;31826;53.572;10.170;2022-07-05T03:24:01;13.80;99.90
46091;DHT22;31826;53.572;10.170;2022-07-05T03:26:27;13.70;99.90
46091;DHT22;31826;53.572;10.170;2022-07-05T03:28:53;13.60;99.90
46091;DHT22;31826;53.572;10.170;2022-07-05T03:31:19;13.40;99.90
46091;DHT22;31826;53.572;10.170;2022-07-05T03:33:44;13.40;99.90
46091;DHT22;31826;53.572;10.170;2022-07-05T03:36:10;13.50;99.90
46091;DHT22;31826;53.572;10.170;2022-07-05T03:38:36;13.60;99.90
46091;DHT22;31826;53.572;10.170;2022-07-05T03:41:02;13.60;99.90
46091;DHT22;31826;53.572;10.170;2022-07-05T03:43:28;13.60;99.90
46091;DHT22;31826;53.572;10.170;2022-07-05T03:45:54;13.60;99.90
46091;DHT22;31826;53.572;10.170;2022-07-05T03:48:21;13.60;99.90
46091;DHT22;31826;53.572;10.170;2022-07-05T03:50:47;13.60;99.90
46091;DHT22;31826;53.572;10.170;2022-07-05T03:53:12;13.50;99.90
46091;DHT22;31826;53.572;10.170;2022-07-05T03:55:38;13.50;99.90
46091;DHT22;31826;53.572;10.170;2022-07-05T03:58:04;13.70;99.90
46091;DHT22;31826;53.572;10.170;2022-07-05T04:00:30;13.70;99.90
46091;DHT22;31826;53.572;10.170;2022-07-05T04:02:56;13.70;99.90
46091;DHT22;31826;53.572;10.170;2022-07-05T04:05:22;13.60;99.90
46091;DHT22;31826;53.572;10.170;2022-07-05T04:07:50;13.70;99.90
46091;DHT22;31826;53.572;10.170;2022-07-05T04:10:17;13.70;99.90
46091;DHT22;31826;53.572;10.170;2022-07-05T04:12:43;13.70;99.90
46091;DHT22;31826;53.572;10.170;2022-07-05T04:15:09;13.70;99.90
46091;DHT22;31826;53.572;10.170;2022-07-05T04:17:35;13.70;99.90
46091;DHT22;31826;53.572;10.170;2022-07-05T04:20:01;13.70;99.90
46091;DHT22;31826;53.572;10.170;2022-07-05T04:22:27;13.80;99.90
46091;DHT22;31826;53.572;10.170;2022-07-05T04:24:52;13.90;99.90
46091;DHT22;31826;53.572;10.170;2022-07-05T04:27:37;13.90;99.90
46091;DHT22;31826;53.572;10.170;2022-07-05T04:30:03;14.00;99.90
46091;DHT22;31826;53.572;10.170;2022-07-05T04:32:28;14.00;99.90
46091;DHT22;31826;53.572;10.170;2022-07-05T04:34:54;14.20;99.90
46091;DHT22;31826;53.572;10.170;2022-07-05T04:37:20;14.50;99.90
46091;DHT22;31826;53.572;10.170;2022-07-05T04:39:45;14.60;99.90
46091;DHT22;31826;53.572;10.170;2022-07-05T04:42:11;14.80;99.90
46091;DHT22;31826;53.572;10.170;2022-07-05T04:44:37;14.80;99.90
46091;DHT22;31826;53.572;10.170;2022-07-05T04:47:03;15.00;99.90
46091;DHT22;31826;53.572;10.170;2022-07-05T04:49:28;15.10;99.90
46091;DHT22;31826;53.572;10.170;2022-07-05T04:51:54;15.20;99.90
46091;DHT22;31826;53.572;10.170;2022-07-05T04:54:20;15.20;99.90
46091;DHT22;31826;53.572;10.170;2022-07-05T04:56:46;15.20;99.90
46091;DHT22;31826;53.572;10.170;2022-07-05T04:59:11;15.30;99.90
46091;DHT22;31826;53.572;10.170;2022-07-05T05:01:37;15.30;99.90
46091;DHT22;31826;53.572;10.170;2022-07-05T05:04:03;15.40;99.90
46091;DHT22;31826;53.572;10.170;2022-07-05T05:06:28;15.50;99.90
46091;DHT22;31826;53.572;10.170;2022-07-05T05:08:54;15.60;99.90
46091;DHT22;31826;53.572;10.170;2022-07-05T05:11:20;15.70;99.90
46091;DHT22;31826;53.572;10.170;2022-07-05T05:13:46;15.70;99.90
46091;DHT22;31826;53.572;10.170;2022-07-05T05:16:13;15.80;99.90
46091;DHT22;31826;53.572;10.170;2022-07-05T05:18:38;15.80;99.90
46091;DHT22;31826;53.572;10.170;2022-07-05T05:21:04;16.00;99.90
46091;DHT22;31826;53.572;10.170;2022-07-05T05:23:30;16.10;99.90
46091;DHT22;31826;53.572;10.170;2022-07-05T05:25:55;16.20;99.90
46091;DHT22;31826;53.572;10.170;2022-07-05T05:28:21;16.30;99.90
46091;DHT22;31826;53.572;10.170;2022-07-05T05:30:47;16.40;99.90
46091;DHT22;31826;53.572;10.170;2022-07-05T05:33:13;16.30;99.90
46091;DHT22;31826;53.572;10.170;2022-07-05T05:35:38;16.40;99.90
46091;DHT22;31826;53.572;10.170;2022-07-05T05:38:04;16.60;99.90
46091;DHT22;31826;53.572;10.170;2022-07-05T05:40:30;16.70;99.90
46091;DHT22;31826;53.572;10.170;2022-07-05T05:42:56;16.90;99.90
46091;DHT22;31826;53.572;10.170;2022-07-05T05:45:22;16.90;99.90
46091;DHT22;31826;53.572;10.170;2022-07-05T05:47:53;16.90;99.90
46091;DHT22;31826;53.572;10.170;2022-07-05T05:52:50;16.80;99.90
46091;DHT22;31826;53.572;10.170;2022-07-05T05:55:16;16.80;99.90
46091;DHT22;31826;53.572;10.170;2022-07-05T05:57:42;16.70;99.90
46091;DHT22;31826;53.572;10.170;2022-07-05T06:00:08;16.60;99.90
46091;DHT22;31826;53.572;10.170;2022-07-05T06:02:35;16.60;99.90
46091;DHT22;31826;53.572;10.170;2022-07-05T06:05:00;16.60;99.90
46091;DHT22;31826;53.572;10.170;2022-07-05T06:07:26;16.60;99.90
46091;DHT22;31826;53.572;10.170;2022-07-05T06:09:52;16.70;99.90
46091;DHT22;31826;53.572;10.170;2022-07-05T06:12:18;16.80;99.90
46091;DHT22;31826;53.572;10.170;2022-07-05T06:14:43;17.00;99.90
46091;DHT22;31826;53.572;10.170;2022-07-05T06:17:09;17.10;99.90
46091;DHT22;31826;53.572;10.170;2022-07-05T06:19:35;17.30;99.90
46091;DHT22;31826;53.572;10.170;2022-07-05T06:22:01;17.30;99.90
46091;DHT22;31826;53.572;10.170;2022-07-05T06:24:26;17.40;99.90
46091;DHT22;31826;53.572;10.170;2022-07-05T06:26:52;17.30;99.90
46091;DHT22;31826;53.572;10.170;2022-07-05T06:29:18;17.30;99.90
46091;DHT22;31826;53.572;10.170;2022-07-05T06:31:44;17.40;99.90
46091;DHT22;31826;53.572;10.170;2022-07-05T06:34:09;17.50;99.90
46091;DHT22;31826;53.572;10.170;2022-07-05T06:36:35;17.60;99.90
46091;DHT22;31826;53.572;10.170;2022-07-05T06:39:01;17.60;99.90
46091;DHT22;31826;53.572;10.170;2022-07-05T06:41:26;17.50;99.90
46091;DHT22;31826;53.572;10.170;2022-07-05T06:43:52;17.40;99.90
46091;DHT22;31826;53.572;10.170;2022-07-05T06:46:18;17.40;99.90
46091;DHT22;31826;53.572;10.170;2022-07-05T06:48:44;17.40;99.90
46091;DHT22;31826;53.572;10.170;2022-07-05T06:51:09;17.60;99.90
46091;DHT22;31826;53.572;10.170;2022-07-05T06:53:36;17.80;99.90
46091;DHT22;31826;53.572;10.170;2022-07-05T06:56:01;18.10;99.90
46091;DHT22;31826;53.572;10.170;2022-07-05T06:58:27;18.20;99.90
46091;DHT22;31826;53.572;10.170;2022-07-05T07:00:53;18.40;99.90
46091;DHT22;31826;53.572;10.170;2022-07-05T07:03:19;18.60;99.90
46091;DHT22;31826;53.572;10.170;2022-07-05T07:05:44;18.70;99.90
46091;DHT22;31826;53.572;10.170;2022-07-05T07:08:10;18.80;99.80
46091;DHT22;31826;53.572;10.170;2022-07-05T07:10:54;18.90;99.50
46091;DHT22;31826;53.572;10.170;2022-07-05T07:13:20;19.00;98.70
46091;DHT22;31826;53.572;10.170;2022-07-05T07:15:46;19.10;98.70
46091;DHT22;31826;53.572;10.170;2022-07-05T07:18:14;19.10;98.20
46091;DHT22;31826;53.572;10.170;2022-07-05T07:20:41;19.30;98.30
46091;DHT22;31826;53.572;10.170;2022-07-05T07:23:07;19.30;98.10
46091;DHT22;31826;53.572;10.170;2022-07-05T07:25:32;19.30;97.50
46091;DHT22;31826;53.572;10.170;2022-07-05T07:27:58;19.50;96.70
46091;DHT22;31826;53.572;10.170;2022-07-05T07:30:26;19.50;97.00
46091;DHT22;31826;53.572;10.170;2022-07-05T07:32:52;19.70;97.10
46091;DHT22;31826;53.572;10.170;2022-07-05T07:35:18;19.70;96.00
46091;DHT22;31826;53.572;10.170;2022-07-05T07:37:44;19.70;95.10
46091;DHT22;31826;53.572;10.170;2022-07-05T07:40:10;19.70;94.60
46091;DHT22;31826;53.572;10.170;2022-07-05T07:42:36;19.80;95.10
46091;DHT22;31826;53.572;10.170;2022-07-05T07:45:03;20.00;94.60
46091;DHT22;31826;53.572;10.170;2022-07-05T07:47:33;20.00;93.80
46091;DHT22;31826;53.572;10.170;2022-07-05T07:49:59;20.10;92.90
46091;DHT22;31826;53.572;10.170;2022-07-05T07:52:25;20.10;92.30
46091;DHT22;31826;53.572;10.170;2022-07-05T07:54:51;20.10;93.20
46091;DHT22;31826;53.572;10.170;2022-07-05T07:57:16;20.30;91.70
46091;DHT22;31826;53.572;10.170;2022-07-05T07:59:42;20.40;90.70
46091;DHT22;31826;53.572;10.170;2022-07-05T08:02:08;20.10;91.00
46091;DHT22;31826;53.572;10.170;2022-07-05T08:04:34;19.90;92.00
46091;DHT22;31826;53.572;10.170;2022-07-05T08:07:00;19.90;91.80
46091;DHT22;31826;53.572;10.170;2022-07-05T08:09:26;19.80;92.50
46091;DHT22;31826;53.572;10.170;2022-07-05T08:11:51;19.80;91.80
46091;DHT22;31826;53.572;10.170;2022-07-05T08:14:18;19.50;91.10
46091;DHT22;31826;53.572;10.170;2022-07-05T08:16:46;19.60;92.00
46091;DHT22;31826;53.572;10.170;2022-07-05T08:19:12;19.90;90.30
46091;DHT22;31826;53.572;10.170;2022-07-05T08:21:56;20.10;89.60
46091;DHT22;31826;53.572;10.170;2022-07-05T08:24:22;20.40;87.20
46091;DHT22;31826;53.572;10.170;2022-07-05T08:26:48;20.60;86.00
46091;DHT22;31826;53.572;10.170;2022-07-05T08:29:13;20.70;78.10
46091;DHT22;31826;53.572;10.170;2022-07-05T08:31:42;20.80;76.10
46091;DHT22;31826;53.572;10.170;2022-07-05T08:34:07;21.00;76.00
46091;DHT22;31826;53.572;10.170;2022-07-05T08:36:34;21.20;73.80
46091;DHT22;31826;53.572;10.170;2022-07-05T08:39:00;21.10;74.90
46091;DHT22;31826;53.572;10.170;2022-07-05T08:41:26;21.40;72.90
46091;DHT22;31826;53.572;10.170;2022-07-05T08:43:54;21.50;71.40
46091;DHT22;31826;53.572;10.170;2022-07-05T08:46:23;21.80;74.10
46091;DHT22;31826;53.572;10.170;2022-07-05T08:48:51;21.80;73.40
46091;DHT22;31826;53.572;10.170;2022-07-05T08:51:21;21.60;72.30
46091;DHT22;31826;53.572;10.170;2022-07-05T08:53:49;21.30;73.40
46091;DHT22;31826;53.572;10.170;2022-07-05T08:56:16;21.10;71.60
46091;DHT22;31826;53.572;10.170;2022-07-05T08:58:42;21.30;69.50
46091;DHT22;31826;53.572;10.170;2022-07-05T09:01:09;21.40;70.20
46091;DHT22;31826;53.572;10.170;2022-07-05T09:03:42;21.60;69.80
46091;DHT22;31826;53.572;10.170;2022-07-05T09:06:12;22.00;71.50
46091;DHT22;31826;53.572;10.170;2022-07-05T09:08:39;22.30;69.00
46091;DHT22;31826;53.572;10.170;2022-07-05T09:11:11;22.30;69.10
46091;DHT22;31826;53.572;10.170;2022-07-05T09:13:42;22.30;68.90
46091;DHT22;31826;53.572;10.170;2022-07-05T09:16:08;22.30;70.10
46091;DHT22;31826;53.572;10.170;2022-07-05T09:18:49;22.10;68.80
46091;DHT22;31826;53.572;10.170;2022-07-05T09:21:24;22.20;71.40
46091;DHT22;31826;53.572;10.170;2022-07-05T09:23:58;22.20;69.50
46091;DHT22;31826;53.572;10.170;2022-07-05T09:26:35;22.10;70.20
46091;DHT22;31826;53.572;10.170;2022-07-05T09:29:03;21.60;71.40
46091;DHT22;31826;53.572;10.170;2022-07-05T09:31:34;21.30;72.60
46091;DHT22;31826;53.572;10.170;2022-07-05T09:37:06;21.00;73.50
46091;DHT22;31826;53.572;10.170;2022-07-05T09:44:58;20.90;73.90
46091;DHT22;31826;53.572;10.170;2022-07-05T09:47:32;20.70;73.30
46091;DHT22;31826;53.572;10.170;2022-07-05T09:49:59;20.80;75.80
46091;DHT22;31826;53.572;10.170;2022-07-05T09:52:37;21.00;75.40
46091;DHT22;31826;53.572;10.170;2022-07-05T09:55:08;21.00;76.30
46091;DHT22;31826;53.572;10.170;2022-07-05T09:57:39;21.10;76.20
46091;DHT22;31826;53.572;10.170;2022-07-05T10:00:15;21.30;75.70
46091;DHT22;31826;53.572;10.170;2022-07-05T10:02:52;21.20;75.80
46091;DHT22;31826;53.572;10.170;2022-07-05T10:05:21;21.30;76.20
46091;DHT22;31826;53.572;10.170;2022-07-05T10:07:55;21.30;75.00
46091;DHT22;31826;53.572;10.170;2022-07-05T10:10:29;21.30;75.20
46091;DHT22;31826;53.572;10.170;2022-07-05T10:12:58;21.40;74.40
46091;DHT22;31826;53.572;10.170;2022-07-05T10:15:27;22.00;73.90
46091;DHT22;31826;53.572;10.170;2022-07-05T10:17:59;22.30;72.10
46091;DHT22;31826;53.572;10.170;2022-07-05T10:20:45;22.70;71.90
46091;DHT22;31826;53.572;10.170;2022-07-05T10:23:18;23.20;68.10
46091;DHT22;31826;53.572;10.170;2022-07-05T10:25:49;23.30;63.10
46091;DHT22;31826;53.572;10.170;2022-07-05T10:28:17;23.30;63.20
46091;DHT22;31826;53.572;10.170;2022-07-05T10:30:47;23.50;62.90
46091;DHT22;31826;53.572;10.170;2022-07-05T10:33:17;23.60;63.40
46091;DHT22;31826;53.572;10.170;2022-07-05T10:35:46;23.70;65.30
46091;DHT22;31826;53.572;10.170;2022-07-05T10:38:13;23.60;66.00
46091;DHT22;31826;53.572;10.170;2022-07-05T10:40:44;23.80;65.50
46091;DHT22;31826;53.572;10.170;2022-07-05T10:43:13;23.80;65.60
46091;DHT22;31826;53.572;10.170;2022-07-05T10:45:40;23.50;66.90
46091;DHT22;31826;53.572;10.170;2022-07-05T10:48:24;23.20;67.50
46091;DHT22;31826;53.572;10.170;2022-07-05T10:58:34;23.40;64.00
46091;DHT22;31826;53.572;10.170;2022-07-05T11:06:27;24.30;63.00
46091;DHT22;31826;53.572;10.170;2022-07-05T11:11:33;23.90;63.00
46091;DHT22;31826;53.572;10.170;2022-07-05T11:14:03;23.90;66.20
46091;DHT22;31826;53.572;10.170;2022-07-05T11:19:16;23.70;66.30
46091;DHT22;31826;53.572;10.170;2022-07-05T11:22:05;23.60;65.10
46091;DHT22;31826;53.572;10.170;2022-07-05T11:24:37;23.50;65.50
46091;DHT22;31826;53.572;10.170;2022-07-05T11:27:09;23.00;63.70
46091;DHT22;31826;53.572;10.170;2022-07-05T11:29:48;22.90;65.60
46091;DHT22;31826;53.572;10.170;2022-07-05T11:32:17;22.80;66.00
46091;DHT22;31826;53.572;10.170;2022-07-05T11:34:45;22.70;65.70
46091;DHT22;31826;53.572;10.170;2022-07-05T11:42:53;23.30;67.00
46091;DHT22;31826;53.572;10.170;2022-07-05T11:45:19;23.60;66.90
46091;DHT22;31826;53.572;10.170;2022-07-05T11:47:44;23.50;65.00
46091;DHT22;31826;53.572;10.170;2022-07-05T11:50:11;23.30;64.80
46091;DHT22;31826;53.572;10.170;2022-07-05T11:52:38;23.50;66.00
46091;DHT22;31826;53.572;10.170;2022-07-05T11:55:06;24.00;65.30
46091;DHT22;31826;53.572;10.170;2022-07-05T11:57:32;24.50;65.70
46091;DHT22;31826;53.572;10.170;2022-07-05T11:59:58;24.90;62.30
46091;DHT22;31826;53.572;10.170;2022-07-05T12:02:23;24.90;62.00
46091;DHT22;31826;53.572;10.170;2022-07-05T12:04:52;25.20;63.30
46091;DHT22;31826;53.572;10.170;2022-07-05T12:07:33;25.50;61.80
46091;DHT22;31826;53.572;10.170;2022-07-05T12:10:01;25.20;60.10
46091;DHT22;31826;53.572;10.170;2022-07-05T12:12:45;24.40;60.00
46091;DHT22;31826;53.572;10.170;2022-07-05T12:15:15;23.90;61.80
46091;DHT22;31826;53.572;10.170;2022-07-05T12:17:43;23.70;63.20
46091;DHT22;31826;53.572;10.170;2022-07-05T12:20:12;23.50;64.00
46091;DHT22;31826;53.572;10.170;2022-07-05T12:22:41;23.60;66.10
46091;DHT22;31826;53.572;10.170;2022-07-05T12:25:08;24.00;65.60
46091;DHT22;31826;53.572;10.170;2022-07-05T12:27:38;23.90;65.50
46091;DHT22;31826;53.572;10.170;2022-07-05T12:30:06;23.80;63.70
46091;DHT22;31826;53.572;10.170;2022-07-05T12:32:34;23.50;64.20
46091;DHT22;31826;53.572;10.170;2022-07-05T12:35:28;23.60;65.90
46091;DHT22;31826;53.572;10.170;2022-07-05T12:37:55;24.20;64.50
46091;DHT22;31826;53.572;10.170;2022-07-05T12:40:22;24.80;62.30
46091;DHT22;31826;53.572;10.170;2022-07-05T12:43:03;24.30;60.60
46091;DHT22;31826;53.572;10.170;2022-07-05T12:45:30;24.00;62.40
46091;DHT22;31826;53.572;10.170;2022-07-05T12:47:58;24.20;63.10
46091;DHT22;31826;53.572;10.170;2022-07-05T12:50:30;24.10;62.60
46091;DHT22;31826;53.572;10.170;2022-07-05T12:53:04;24.60;63.80
46091;DHT22;31826;53.572;10.170;2022-07-05T12:55:50;25.00;62.70
46091;DHT22;31826;53.572;10.170;2022-07-05T12:58:51;25.00;62.50
46091;DHT22;31826;53.572;10.170;2022-07-05T13:03:59;25.60;60.40
46091;DHT22;31826;53.572;10.170;2022-07-05T13:06:47;25.50;59.70
46091;DHT22;31826;53.572;10.170;2022-07-05T13:09:15;25.10;60.20
46091;DHT22;31826;53.572;10.170;2022-07-05T13:11:43;24.70;61.30
46091;DHT22;31826;53.572;10.170;2022-07-05T13:14:09;24.60;62.10
46091;DHT22;31826;53.572;10.170;2022-07-05T13:16:34;24.70;63.00
46091;DHT22;31826;53.572;10.170;2022-07-05T13:19:08;24.50;62.80
46091;DHT22;31826;53.572;10.170;2022-07-05T13:21:33;24.30;62.50
46091;DHT22;31826;53.572;10.170;2022-07-05T13:24:00;24.10;64.00
46091;DHT22;31826;53.572;10.170;2022-07-05T13:26:25;24.10;64.90
46091;DHT22;31826;53.572;10.170;2022-07-05T13:28:51;24.20;64.60
46091;DHT22;31826;53.572;10.170;2022-07-05T13:31:17;24.10;64.30
46091;DHT22;31826;53.572;10.170;2022-07-05T13:33:42;23.70;64.90
46091;DHT22;31826;53.572;10.170;2022-07-05T13:36:08;23.50;66.20
46091;DHT22;31826;53.572;10.170;2022-07-05T13:38:34;23.10;66.40
46091;DHT22;31826;53.572;10.170;2022-07-05T13:40:59;22.90;67.30
46091;DHT22;31826;53.572;10.170;2022-07-05T13:43:25;22.80;67.60
46091;DHT22;31826;53.572;10.170;2022-07-05T13:45:51;22.70;68.10
46091;DHT22;31826;53.572;10.170;2022-07-05T13:48:17;22.50;68.10
46091;DHT22;31826;53.572;10.170;2022-07-05T13:50:42;22.30;68.20
46091;DHT22;31826;53.572;10.170;2022-07-05T13:53:08;22.20;69.80
46091;DHT22;31826;53.572;10.170;2022-07-05T13:55:34;22.30;70.00
46091;DHT22;31826;53.572;10.170;2022-07-05T13:58:00;22.10;70.90
46091;DHT22;31826;53.572;10.170;2022-07-05T14:00:25;21.90;72.40
46091;DHT22;31826;53.572;10.170;2022-07-05T14:02:51;22.10;73.80
46091;DHT22;31826;53.572;10.170;2022-07-05T14:05:17;22.10;73.70
46091;DHT22;31826;53.572;10.170;2022-07-05T14:07:46;22.20;73.50
46091;DHT22;31826;53.572;10.170;2022-07-05T14:10:12;21.90;74.10
46091;DHT22;31826;53.572;10.170;2022-07-05T14:12:38;22.00;75.00
46091;DHT22;31826;53.572;10.170;2022-07-05T14:15:04;22.00;75.80
46091;DHT22;31826;53.572;10.170;2022-07-05T14:17:30;22.10;75.80
46091;DHT22;31826;53.572;10.170;2022-07-05T14:20:04;22.00;75.50
46091;DHT22;31826;53.572;10.170;2022-07-05T14:22:30;21.90;75.80
46091;DHT22;31826;53.572;10.170;2022-07-05T14:24:56;22.40;76.70
46091;DHT22;31826;53.572;10.170;2022-07-05T14:27:22;22.90;75.80
46091;DHT22;31826;53.572;10.170;2022-07-05T14:29:48;23.00;74.10
46091;DHT22;31826;53.572;10.170;2022-07-05T14:32:13;22.70;73.60
46091;DHT22;31826;53.572;10.170;2022-07-05T14:34:39;22.40;75.40
46091;DHT22;31826;53.572;10.170;2022-07-05T14:37:05;22.30;76.20
46091;DHT22;31826;53.572;10.170;2022-07-05T14:39:31;22.20;74.70
46091;DHT22;31826;53.572;10.170;2022-07-05T14:41:56;22.10;76.10
46091;DHT22;31826;53.572;10.170;2022-07-05T14:44:22;22.10;77.80
46091;DHT22;31826;53.572;10.170;2022-07-05T14:46:48;22.10;77.40
46091;DHT22;31826;53.572;10.170;2022-07-05T14:49:13;21.90;75.90
46091;DHT22;31826;53.572;10.170;2022-07-05T14:51:39;21.90;78.30
46091;DHT22;31826;53.572;10.170;2022-07-05T14:54:05;22.20;78.70
46091;DHT22;31826;53.572;10.170;2022-07-05T14:56:31;22.30;78.20
46091;DHT22;31826;53.572;10.170;2022-07-05T14:58:56;22.40;77.80
46091;DHT22;31826;53.572;10.170;2022-07-05T15:01:22;22.70;77.70
46091;DHT22;31826;53.572;10.170;2022-07-05T15:03:48;23.00;77.20
46091;DHT22;31826;53.572;10.170;2022-07-05T15:06:14;23.20;77.10
46091;DHT22;31826;53.572;10.170;2022-07-05T15:08:40;23.20;74.80
46091;DHT22;31826;53.572;10.170;2022-07-05T15:11:06;22.80;75.50
46091;DHT22;31826;53.572;10.170;2022-07-05T15:13:31;22.90;77.40
46091;DHT22;31826;53.572;10.170;2022-07-05T15:15:59;23.30;76.90
46091;DHT22;31826;53.572;10.170;2022-07-05T15:18:24;23.30;75.90
46091;DHT22;31826;53.572;10.170;2022-07-05T15:20:51;22.70;75.10
46091;DHT22;31826;53.572;10.170;2022-07-05T15:23:17;22.30;78.50
46091;DHT22;31826;53.572;10.170;2022-07-05T15:25:44;22.40;78.00
46091;DHT22;31826;53.572;10.170;2022-07-05T15:28:10;22.30;77.50
46091;DHT22;31826;53.572;10.170;2022-07-05T15:30:38;22.40;77.00
46091;DHT22;31826;53.572;10.170;2022-07-05T15:33:04;22.10;77.00
46091;DHT22;31826;53.572;10.170;2022-07-05T15:35:33;22.10;77.70
46091;DHT22;31826;53.572;10.170;2022-07-05T15:37:59;22.20;76.30
46091;DHT22;31826;53.572;10.170;2022-07-05T15:40:24;22.50;77.00
46091;DHT22;31826;53.572;10.170;2022-07-05T15:42:50;22.70;75.80
46091;DHT22;31826;53.572;10.170;2022-07-05T15:45:16;22.40;76.50
46091;DHT22;31826;53.572;10.170;2022-07-05T15:47:42;22.30;77.70
46091;DHT22;31826;53.572;10.170;2022-07-05T15:50:09;22.30;78.90
46091;DHT22;31826;53.572;10.170;2022-07-05T15:52:41;22.80;78.00
46091;DHT22;31826;53.572;10.170;2022-07-05T15:55:09;22.70;79.50